sensor_id;sensor_type;location;lat;lon;timestamp;P1;durP1;ratioP1;P2;durP2;ratioP2
34505;SDS011;20748;42.632;23.198;2023-07-08T00:05:02;13.63;;;8.43;;
34505;SDS011;20748;42.632;23.198;2023-07-08T00:07:35;14.00;;;8.45;;
34505;SDS011;20748;42.632;23.198;2023-07-08T00:10:11;15.52;;;9.32;;
34505;SDS011;20748;42.632;23.198;2023-07-08T00:12:46;13.93;;;9.82;;
34505;SDS011;20748;42.632;23.198;2023-07-08T00:15:22;15.90;;;10.10;;
34505;SDS011;20748;42.632;23.198;2023-07-08T00:17:58;15.10;;;10.13;;
34505;SDS011;20748;42.632;23.198;2023-07-08T00:20:36;14.15;;;10.23;;
34505;SDS011;20748;42.632;23.198;2023-07-08T00:28:30;16.65;;;11.32;;
34505;SDS011;20748;42.632;23.198;2023-07-08T00:31:04;14.63;;;9.95;;
34505;SDS011;20748;42.632;23.198;2023-07-08T00:33:40;17.50;;;11.63;;
34505;SDS011;20748;42.632;23.198;2023-07-08T00:36:12;15.10;;;10.00;;
34505;SDS011;20748;42.632;23.198;2023-07-08T00:38:47;16.98;;;10.68;;
34505;SDS011;20748;42.632;23.198;2023-07-08T00:41:20;17.38;;;10.75;;
34505;SDS011;20748;42.632;23.198;2023-07-08T00:43:58;14.00;;;10.70;;
34505;SDS011;20748;42.632;23.198;2023-07-08T00:53:22;15.05;;;10.13;;
34505;SDS011;20748;42.632;23.198;2023-07-08T00:55:57;16.13;;;11.15;;
34505;SDS011;20748;42.632;23.198;2023-07-08T00:58:34;13.68;;;10.10;;
34505;SDS011;20748;42.632;23.198;2023-07-08T01:01:10;15.52;;;10.90;;
34505;SDS011;20748;42.632;23.198;2023-07-08T01:03:45;16.25;;;10.93;;
34505;SDS011;20748;42.632;23.198;2023-07-08T01:06:22;20.45;;;11.57;;
34505;SDS011;20748;42.632;23.198;2023-07-08T01:09:03;16.27;;;11.52;;
34505;SDS011;20748;42.632;23.198;2023-07-08T01:19:28;15.57;;;11.07;;
34505;SDS011;20748;42.632;23.198;2023-07-08T01:22:05;14.32;;;10.50;;
34505;SDS011;20748;42.632;23.198;2023-07-08T01:24:40;17.42;;;11.93;;
34505;SDS011;20748;42.632;23.198;2023-07-08T01:27:15;15.65;;;9.77;;
34505;SDS011;20748;42.632;23.198;2023-07-08T01:29:49;13.88;;;10.30;;
34505;SDS011;20748;42.632;23.198;2023-07-08T01:32:22;13.70;;;10.07;;
34505;SDS011;20748;42.632;23.198;2023-07-08T01:34:56;16.77;;;10.52;;
34505;SDS011;20748;42.632;23.198;2023-07-08T01:40:57;15.30;;;9.90;;
34505;SDS011;20748;42.632;23.198;2023-07-08T01:43:30;13.73;;;10.07;;
34505;SDS011;20748;42.632;23.198;2023-07-08T01:46:03;15.18;;;10.07;;
34505;SDS011;20748;42.632;23.198;2023-07-08T01:48:36;14.00;;;9.48;;
34505;SDS011;20748;42.632;23.198;2023-07-08T01:51:12;14.27;;;10.20;;
34505;SDS011;20748;42.632;23.198;2023-07-08T01:53:44;12.85;;;8.98;;
34505;SDS011;20748;42.632;23.198;2023-07-08T01:56:18;15.52;;;10.40;;
34505;SDS011;20748;42.632;23.198;2023-07-08T02:01:32;14.18;;;9.82;;
34505;SDS011;20748;42.632;23.198;2023-07-08T02:04:05;17.58;;;9.70;;
34505;SDS011;20748;42.632;23.198;2023-07-08T02:06:38;12.80;;;9.55;;
34505;SDS011;20748;42.632;23.198;2023-07-08T02:09:14;14.00;;;10.23;;
34505;SDS011;20748;42.632;23.198;2023-07-08T02:11:47;13.85;;;9.40;;
34505;SDS011;20748;42.632;23.198;2023-07-08T02:14:20;14.50;;;9.98;;
34505;SDS011;20748;42.632;23.198;2023-07-08T02:16:53;18.75;;;9.52;;
34505;SDS011;20748;42.632;23.198;2023-07-08T02:26:17;14.60;;;9.68;;
34505;SDS011;20748;42.632;23.198;2023-07-08T02:28:50;14.07;;;9.52;;
34505;SDS011;20748;42.632;23.198;2023-07-08T02:31:23;12.20;;;8.60;;
34505;SDS011;20748;42.632;23.198;2023-07-08T02:33:56;15.25;;;9.07;;
34505;SDS011;20748;42.632;23.198;2023-07-08T02:36:29;14.00;;;10.00;;
34505;SDS011;20748;42.632;23.198;2023-07-08T02:39:01;12.82;;;8.80;;
34505;SDS011;20748;42.632;23.198;2023-07-08T02:41:35;14.55;;;9.18;;
34505;SDS011;20748;42.632;23.198;2023-07-08T02:46:56;14.63;;;10.30;;
34505;SDS011;20748;42.632;23.198;2023-07-08T02:49:29;14.60;;;9.52;;
34505;SDS011;20748;42.632;23.198;2023-07-08T02:52:02;13.82;;;9.65;;
34505;SDS011;20748;42.632;23.198;2023-07-08T02:54:35;12.60;;;8.45;;
34505;SDS011;20748;42.632;23.198;2023-07-08T02:57:08;13.88;;;9.23;;
34505;SDS011;20748;42.632;23.198;2023-07-08T02:59:40;12.57;;;9.32;;
34505;SDS011;20748;42.632;23.198;2023-07-08T03:02:13;15.70;;;9.73;;
34505;SDS011;20748;42.632;23.198;2023-07-08T03:08:14;12.35;;;9.05;;
34505;SDS011;20748;42.632;23.198;2023-07-08T03:10:47;13.35;;;9.27;;
34505;SDS011;20748;42.632;23.198;2023-07-08T03:13:19;13.75;;;9.60;;
34505;SDS011;20748;42.632;23.198;2023-07-08T03:15:52;14.32;;;9.40;;
34505;SDS011;20748;42.632;23.198;2023-07-08T03:18:26;13.52;;;8.48;;
34505;SDS011;20748;42.632;23.198;2023-07-08T03:20:59;12.35;;;8.68;;
34505;SDS011;20748;42.632;23.198;2023-07-08T03:23:33;12.52;;;8.10;;
34505;SDS011;20748;42.632;23.198;2023-07-08T03:35:05;10.65;;;8.70;;
34505;SDS011;20748;42.632;23.198;2023-07-08T03:37:39;12.15;;;9.20;;
34505;SDS011;20748;42.632;23.198;2023-07-08T03:40:12;10.65;;;7.93;;
34505;SDS011;20748;42.632;23.198;2023-07-08T03:42:45;11.88;;;8.32;;
34505;SDS011;20748;42.632;23.198;2023-07-08T03:45:18;12.10;;;8.70;;
34505;SDS011;20748;42.632;23.198;2023-07-08T03:47:50;11.70;;;8.32;;
34505;SDS011;20748;42.632;23.198;2023-07-08T03:50:24;12.02;;;8.45;;
34505;SDS011;20748;42.632;23.198;2023-07-08T04:01:20;11.63;;;6.80;;
34505;SDS011;20748;42.632;23.198;2023-07-08T04:03:56;9.40;;;7.00;;
34505;SDS011;20748;42.632;23.198;2023-07-08T04:06:30;8.88;;;6.18;;
34505;SDS011;20748;42.632;23.198;2023-07-08T04:09:03;9.73;;;6.53;;
34505;SDS011;20748;42.632;23.198;2023-07-08T04:11:35;9.00;;;6.13;;
34505;SDS011;20748;42.632;23.198;2023-07-08T04:14:08;8.95;;;6.47;;
34505;SDS011;20748;42.632;23.198;2023-07-08T04:16:46;10.30;;;6.40;;
34505;SDS011;20748;42.632;23.198;2023-07-08T04:24:43;10.00;;;6.75;;
34505;SDS011;20748;42.632;23.198;2023-07-08T04:27:16;9.25;;;6.53;;
34505;SDS011;20748;42.632;23.198;2023-07-08T04:29:49;9.98;;;5.88;;
34505;SDS011;20748;42.632;23.198;2023-07-08T04:32:22;12.50;;;7.53;;
34505;SDS011;20748;42.632;23.198;2023-07-08T04:34:56;8.60;;;6.28;;
34505;SDS011;20748;42.632;23.198;2023-07-08T04:37:29;9.30;;;5.90;;
34505;SDS011;20748;42.632;23.198;2023-07-08T04:40:02;9.43;;;6.00;;
34505;SDS011;20748;42.632;23.198;2023-07-08T04:47:46;7.43;;;5.60;;
34505;SDS011;20748;42.632;23.198;2023-07-08T04:50:23;12.00;;;7.10;;
34505;SDS011;20748;42.632;23.198;2023-07-08T04:52:56;8.65;;;5.93;;
34505;SDS011;20748;42.632;23.198;2023-07-08T04:55:28;7.57;;;5.43;;
34505;SDS011;20748;42.632;23.198;2023-07-08T04:58:01;9.07;;;6.75;;
34505;SDS011;20748;42.632;23.198;2023-07-08T05:00:34;8.80;;;5.47;;
34505;SDS011;20748;42.632;23.198;2023-07-08T05:03:07;9.00;;;6.13;;
34505;SDS011;20748;42.632;23.198;2023-07-08T05:12:34;11.00;;;6.65;;
34505;SDS011;20748;42.632;23.198;2023-07-08T05:15:08;10.18;;;6.55;;
34505;SDS011;20748;42.632;23.198;2023-07-08T05:17:41;8.90;;;5.85;;
34505;SDS011;20748;42.632;23.198;2023-07-08T05:20:15;8.68;;;5.53;;
34505;SDS011;20748;42.632;23.198;2023-07-08T05:22:47;11.75;;;5.90;;
34505;SDS011;20748;42.632;23.198;2023-07-08T05:25:20;7.80;;;5.72;;
34505;SDS011;20748;42.632;23.198;2023-07-08T05:27:53;8.20;;;5.30;;
34505;SDS011;20748;42.632;23.198;2023-07-08T05:33:51;8.85;;;5.50;;
34505;SDS011;20748;42.632;23.198;2023-07-08T05:36:24;9.57;;;6.30;;
34505;SDS011;20748;42.632;23.198;2023-07-08T05:38:57;7.95;;;5.68;;
34505;SDS011;20748;42.632;23.198;2023-07-08T05:41:29;9.45;;;5.97;;
34505;SDS011;20748;42.632;23.198;2023-07-08T05:44:02;9.50;;;6.10;;
34505;SDS011;20748;42.632;23.198;2023-07-08T05:46:35;11.60;;;6.20;;
34505;SDS011;20748;42.632;23.198;2023-07-08T05:49:08;9.15;;;6.68;;
34505;SDS011;20748;42.632;23.198;2023-07-08T05:54:23;8.15;;;6.10;;
34505;SDS011;20748;42.632;23.198;2023-07-08T05:56:57;15.07;;;8.00;;
34505;SDS011;20748;42.632;23.198;2023-07-08T05:59:29;11.10;;;8.00;;
34505;SDS011;20748;42.632;23.198;2023-07-08T06:02:02;10.23;;;7.35;;
34505;SDS011;20748;42.632;23.198;2023-07-08T06:04:35;12.02;;;8.10;;
34505;SDS011;20748;42.632;23.198;2023-07-08T06:07:08;13.55;;;7.78;;
34505;SDS011;20748;42.632;23.198;2023-07-08T06:09:41;14.52;;;7.93;;
34505;SDS011;20748;42.632;23.198;2023-07-08T06:15:04;15.00;;;7.50;;
34505;SDS011;20748;42.632;23.198;2023-07-08T06:17:37;13.98;;;7.10;;
34505;SDS011;20748;42.632;23.198;2023-07-08T06:20:10;10.93;;;7.03;;
34505;SDS011;20748;42.632;23.198;2023-07-08T06:22:42;11.02;;;7.60;;
34505;SDS011;20748;42.632;23.198;2023-07-08T06:25:18;11.52;;;8.00;;
34505;SDS011;20748;42.632;23.198;2023-07-08T06:27:51;12.98;;;7.95;;
34505;SDS011;20748;42.632;23.198;2023-07-08T06:30:26;10.85;;;7.72;;
34505;SDS011;20748;42.632;23.198;2023-07-08T06:39:36;10.00;;;6.70;;
34505;SDS011;20748;42.632;23.198;2023-07-08T06:42:11;8.88;;;6.68;;
34505;SDS011;20748;42.632;23.198;2023-07-08T06:44:50;8.65;;;6.57;;
34505;SDS011;20748;42.632;23.198;2023-07-08T06:47:24;12.32;;;7.30;;
34505;SDS011;20748;42.632;23.198;2023-07-08T06:49:57;8.95;;;5.72;;
34505;SDS011;20748;42.632;23.198;2023-07-08T06:52:32;8.30;;;6.32;;
34505;SDS011;20748;42.632;23.198;2023-07-08T06:55:08;13.02;;;5.93;;
34505;SDS011;20748;42.632;23.198;2023-07-08T07:03:07;8.55;;;5.18;;
34505;SDS011;20748;42.632;23.198;2023-07-08T07:05:40;8.68;;;5.82;;
34505;SDS011;20748;42.632;23.198;2023-07-08T07:08:14;12.57;;;4.88;;
34505;SDS011;20748;42.632;23.198;2023-07-08T07:10:47;9.80;;;4.97;;
34505;SDS011;20748;42.632;23.198;2023-07-08T07:13:20;7.63;;;4.63;;
34505;SDS011;20748;42.632;23.198;2023-07-08T07:15:52;8.80;;;5.85;;
34505;SDS011;20748;42.632;23.198;2023-07-08T07:18:25;7.00;;;5.07;;
34505;SDS011;20748;42.632;23.198;2023-07-08T07:25:24;10.27;;;5.50;;
34505;SDS011;20748;42.632;23.198;2023-07-08T07:27:57;8.85;;;5.38;;
34505;SDS011;20748;42.632;23.198;2023-07-08T07:30:30;8.02;;;5.15;;
34505;SDS011;20748;42.632;23.198;2023-07-08T07:33:02;7.68;;;4.85;;
34505;SDS011;20748;42.632;23.198;2023-07-08T07:35:35;7.80;;;5.03;;
34505;SDS011;20748;42.632;23.198;2023-07-08T07:38:07;8.10;;;4.90;;
34505;SDS011;20748;42.632;23.198;2023-07-08T07:40:41;8.55;;;4.57;;
34505;SDS011;20748;42.632;23.198;2023-07-08T07:47:06;8.60;;;5.28;;
34505;SDS011;20748;42.632;23.198;2023-07-08T07:49:39;7.07;;;4.05;;
34505;SDS011;20748;42.632;23.198;2023-07-08T07:52:12;7.70;;;4.43;;
34505;SDS011;20748;42.632;23.198;2023-07-08T07:54:44;6.88;;;4.05;;
34505;SDS011;20748;42.632;23.198;2023-07-08T07:57:17;7.00;;;4.28;;
34505;SDS011;20748;42.632;23.198;2023-07-08T07:59:49;6.85;;;4.60;;
34505;SDS011;20748;42.632;23.198;2023-07-08T08:02:23;7.70;;;4.28;;
34505;SDS011;20748;42.632;23.198;2023-07-08T08:07:45;8.20;;;4.85;;
34505;SDS011;20748;42.632;23.198;2023-07-08T08:10:19;9.55;;;5.70;;
34505;SDS011;20748;42.632;23.198;2023-07-08T08:12:52;6.57;;;4.07;;
34505;SDS011;20748;42.632;23.198;2023-07-08T08:15:25;7.68;;;4.60;;
34505;SDS011;20748;42.632;23.198;2023-07-08T08:17:58;7.18;;;3.90;;
34505;SDS011;20748;42.632;23.198;2023-07-08T08:20:31;5.82;;;4.10;;
34505;SDS011;20748;42.632;23.198;2023-07-08T08:23:04;6.15;;;4.18;;
34505;SDS011;20748;42.632;23.198;2023-07-08T08:30:59;5.70;;;4.03;;
34505;SDS011;20748;42.632;23.198;2023-07-08T08:33:33;7.65;;;4.50;;
34505;SDS011;20748;42.632;23.198;2023-07-08T08:36:05;6.68;;;4.20;;
34505;SDS011;20748;42.632;23.198;2023-07-08T08:38:38;6.57;;;4.10;;
34505;SDS011;20748;42.632;23.198;2023-07-08T08:41:12;6.72;;;4.05;;
34505;SDS011;20748;42.632;23.198;2023-07-08T08:43:47;12.27;;;4.15;;
34505;SDS011;20748;42.632;23.198;2023-07-08T08:46:23;5.55;;;4.05;;
34505;SDS011;20748;42.632;23.198;2023-07-08T08:54:21;6.63;;;4.13;;
34505;SDS011;20748;42.632;23.198;2023-07-08T08:56:55;5.05;;;3.80;;
34505;SDS011;20748;42.632;23.198;2023-07-08T08:59:42;6.50;;;4.07;;
34505;SDS011;20748;42.632;23.198;2023-07-08T09:05:11;5.80;;;3.55;;
34505;SDS011;20748;42.632;23.198;2023-07-08T09:07:56;4.80;;;3.42;;
34505;SDS011;20748;42.632;23.198;2023-07-08T09:10:40;5.00;;;3.67;;
34505;SDS011;20748;42.632;23.198;2023-07-08T09:18:38;6.10;;;4.15;;
34505;SDS011;20748;42.632;23.198;2023-07-08T09:21:19;6.50;;;4.10;;
34505;SDS011;20748;42.632;23.198;2023-07-08T09:23:54;5.32;;;4.10;;
34505;SDS011;20748;42.632;23.198;2023-07-08T09:26:32;5.32;;;3.60;;
34505;SDS011;20748;42.632;23.198;2023-07-08T09:29:07;5.25;;;3.70;;
34505;SDS011;20748;42.632;23.198;2023-07-08T09:31:41;9.68;;;4.00;;
34505;SDS011;20748;42.632;23.198;2023-07-08T09:34:16;6.25;;;4.00;;
34505;SDS011;20748;42.632;23.198;2023-07-08T09:44:46;8.20;;;4.68;;
34505;SDS011;20748;42.632;23.198;2023-07-08T09:47:20;6.18;;;4.18;;
34505;SDS011;20748;42.632;23.198;2023-07-08T09:49:54;5.70;;;3.53;;
34505;SDS011;20748;42.632;23.198;2023-07-08T09:52:29;5.75;;;3.97;;
34505;SDS011;20748;42.632;23.198;2023-07-08T09:55:02;5.20;;;3.55;;
34505;SDS011;20748;42.632;23.198;2023-07-08T09:57:35;5.63;;;3.60;;
34505;SDS011;20748;42.632;23.198;2023-07-08T10:00:09;5.80;;;4.28;;
34505;SDS011;20748;42.632;23.198;2023-07-08T10:05:28;5.00;;;3.28;;
34505;SDS011;20748;42.632;23.198;2023-07-08T10:08:09;4.38;;;3.13;;
34505;SDS011;20748;42.632;23.198;2023-07-08T10:10:46;6.20;;;3.65;;
34505;SDS011;20748;42.632;23.198;2023-07-08T10:13:21;6.82;;;3.05;;
34505;SDS011;20748;42.632;23.198;2023-07-08T10:16:12;4.65;;;3.05;;
34505;SDS011;20748;42.632;23.198;2023-07-08T10:18:47;4.43;;;2.95;;
34505;SDS011;20748;42.632;23.198;2023-07-08T10:21:26;5.85;;;3.20;;
34505;SDS011;20748;42.632;23.198;2023-07-08T10:32:00;5.57;;;3.35;;
34505;SDS011;20748;42.632;23.198;2023-07-08T10:34:42;4.95;;;2.72;;
34505;SDS011;20748;42.632;23.198;2023-07-08T10:37:22;4.75;;;3.17;;
34505;SDS011;20748;42.632;23.198;2023-07-08T10:40:02;5.70;;;3.28;;
34505;SDS011;20748;42.632;23.198;2023-07-08T10:42:54;4.78;;;3.25;;
34505;SDS011;20748;42.632;23.198;2023-07-08T10:45:37;4.88;;;2.72;;
34505;SDS011;20748;42.632;23.198;2023-07-08T10:48:23;4.57;;;3.28;;
34505;SDS011;20748;42.632;23.198;2023-07-08T10:56:31;4.32;;;3.10;;
34505;SDS011;20748;42.632;23.198;2023-07-08T10:59:14;4.88;;;2.90;;
34505;SDS011;20748;42.632;23.198;2023-07-08T11:02:14;4.03;;;2.58;;
34505;SDS011;20748;42.632;23.198;2023-07-08T11:05:11;4.47;;;3.10;;
34505;SDS011;20748;42.632;23.198;2023-07-08T11:07:55;5.45;;;3.30;;
34505;SDS011;20748;42.632;23.198;2023-07-08T11:10:34;4.05;;;2.78;;
34505;SDS011;20748;42.632;23.198;2023-07-08T11:13:14;4.03;;;2.70;;
34505;SDS011;20748;42.632;23.198;2023-07-08T11:21:26;4.15;;;2.72;;
34505;SDS011;20748;42.632;23.198;2023-07-08T11:24:05;4.38;;;2.85;;
34505;SDS011;20748;42.632;23.198;2023-07-08T11:26:46;3.65;;;2.72;;
34505;SDS011;20748;42.632;23.198;2023-07-08T11:29:23;3.85;;;2.67;;
34505;SDS011;20748;42.632;23.198;2023-07-08T11:31:59;3.70;;;2.72;;
34505;SDS011;20748;42.632;23.198;2023-07-08T11:34:33;3.75;;;2.40;;
34505;SDS011;20748;42.632;23.198;2023-07-08T11:37:08;4.55;;;2.58;;
34505;SDS011;20748;42.632;23.198;2023-07-08T11:44:54;3.78;;;2.53;;
34505;SDS011;20748;42.632;23.198;2023-07-08T11:47:32;3.45;;;2.40;;
34505;SDS011;20748;42.632;23.198;2023-07-08T11:50:12;4.88;;;2.65;;
34505;SDS011;20748;42.632;23.198;2023-07-08T11:52:58;5.95;;;2.75;;
34505;SDS011;20748;42.632;23.198;2023-07-08T11:55:35;6.53;;;3.17;;
34505;SDS011;20748;42.632;23.198;2023-07-08T11:58:14;4.25;;;2.33;;
34505;SDS011;20748;42.632;23.198;2023-07-08T12:00:54;4.82;;;3.25;;
34505;SDS011;20748;42.632;23.198;2023-07-08T12:09:15;4.50;;;3.10;;
34505;SDS011;20748;42.632;23.198;2023-07-08T12:11:55;4.68;;;2.65;;
34505;SDS011;20748;42.632;23.198;2023-07-08T12:14:29;4.15;;;2.50;;
34505;SDS011;20748;42.632;23.198;2023-07-08T12:17:04;4.50;;;2.53;;
34505;SDS011;20748;42.632;23.198;2023-07-08T12:22:17;5.07;;;2.78;;
34505;SDS011;20748;42.632;23.198;2023-07-08T12:32:31;4.32;;;2.50;;
34505;SDS011;20748;42.632;23.198;2023-07-08T12:35:05;4.78;;;2.72;;
34505;SDS011;20748;42.632;23.198;2023-07-08T12:37:51;4.75;;;2.53;;
34505;SDS011;20748;42.632;23.198;2023-07-08T12:40:25;4.10;;;2.05;;
34505;SDS011;20748;42.632;23.198;2023-07-08T12:42:59;3.80;;;2.58;;
34505;SDS011;20748;42.632;23.198;2023-07-08T12:45:32;3.47;;;2.42;;
34505;SDS011;20748;42.632;23.198;2023-07-08T12:48:05;4.47;;;2.75;;
34505;SDS011;20748;42.632;23.198;2023-07-08T12:53:27;4.57;;;2.67;;
34505;SDS011;20748;42.632;23.198;2023-07-08T12:55:59;6.30;;;2.78;;
34505;SDS011;20748;42.632;23.198;2023-07-08T12:58:36;4.30;;;2.67;;
34505;SDS011;20748;42.632;23.198;2023-07-08T13:01:13;3.45;;;2.10;;
34505;SDS011;20748;42.632;23.198;2023-07-08T13:03:50;5.63;;;2.30;;
34505;SDS011;20748;42.632;23.198;2023-07-08T13:06:27;3.67;;;2.00;;
34505;SDS011;20748;42.632;23.198;2023-07-08T13:09:05;4.18;;;2.28;;
34505;SDS011;20748;42.632;23.198;2023-07-08T13:19:21;2.97;;;2.03;;
34505;SDS011;20748;42.632;23.198;2023-07-08T13:21:55;3.63;;;2.30;;
34505;SDS011;20748;42.632;23.198;2023-07-08T13:24:30;3.47;;;2.42;;
34505;SDS011;20748;42.632;23.198;2023-07-08T13:27:12;4.20;;;2.50;;
34505;SDS011;20748;42.632;23.198;2023-07-08T13:29:50;4.35;;;2.78;;
34505;SDS011;20748;42.632;23.198;2023-07-08T13:32:29;3.00;;;1.70;;
34505;SDS011;20748;42.632;23.198;2023-07-08T13:43:09;4.68;;;2.35;;
34505;SDS011;20748;42.632;23.198;2023-07-08T13:45:43;4.05;;;2.63;;
34505;SDS011;20748;42.632;23.198;2023-07-08T13:48:21;4.10;;;2.50;;
34505;SDS011;20748;42.632;23.198;2023-07-08T13:50:58;10.63;;;3.45;;
34505;SDS011;20748;42.632;23.198;2023-07-08T13:53:41;3.53;;;1.80;;
34505;SDS011;20748;42.632;23.198;2023-07-08T13:56:18;5.00;;;2.65;;
34505;SDS011;20748;42.632;23.198;2023-07-08T13:59:00;4.43;;;1.98;;
34505;SDS011;20748;42.632;23.198;2023-07-08T14:06:55;3.75;;;2.53;;
34505;SDS011;20748;42.632;23.198;2023-07-08T14:09:28;3.45;;;2.00;;
34505;SDS011;20748;42.632;23.198;2023-07-08T14:12:00;3.15;;;2.20;;
34505;SDS011;20748;42.632;23.198;2023-07-08T14:14:34;4.63;;;2.47;;
34505;SDS011;20748;42.632;23.198;2023-07-08T14:17:08;4.15;;;1.90;;
34505;SDS011;20748;42.632;23.198;2023-07-08T14:19:43;4.22;;;2.40;;
34505;SDS011;20748;42.632;23.198;2023-07-08T14:22:22;2.65;;;2.00;;
34505;SDS011;20748;42.632;23.198;2023-07-08T14:28:43;3.35;;;2.30;;
34505;SDS011;20748;42.632;23.198;2023-07-08T14:31:17;3.25;;;1.95;;
34505;SDS011;20748;42.632;23.198;2023-07-08T14:33:52;4.28;;;2.45;;
34505;SDS011;20748;42.632;23.198;2023-07-08T14:36:33;3.22;;;2.28;;
34505;SDS011;20748;42.632;23.198;2023-07-08T14:39:10;4.53;;;2.35;;
34505;SDS011;20748;42.632;23.198;2023-07-08T14:41:44;4.47;;;2.42;;
34505;SDS011;20748;42.632;23.198;2023-07-08T14:44:24;4.30;;;2.25;;
34505;SDS011;20748;42.632;23.198;2023-07-08T14:54:38;4.90;;;2.92;;
34505;SDS011;20748;42.632;23.198;2023-07-08T14:57:11;3.92;;;2.50;;
34505;SDS011;20748;42.632;23.198;2023-07-08T14:59:47;3.63;;;2.20;;
34505;SDS011;20748;42.632;23.198;2023-07-08T15:02:23;3.63;;;2.50;;
34505;SDS011;20748;42.632;23.198;2023-07-08T15:04:56;4.78;;;2.53;;
34505;SDS011;20748;42.632;23.198;2023-07-08T15:07:28;4.50;;;2.72;;
34505;SDS011;20748;42.632;23.198;2023-07-08T15:10:01;5.03;;;2.55;;
34505;SDS011;20748;42.632;23.198;2023-07-08T15:16:20;4.75;;;2.20;;
34505;SDS011;20748;42.632;23.198;2023-07-08T15:18:52;3.92;;;2.00;;
34505;SDS011;20748;42.632;23.198;2023-07-08T15:21:25;3.55;;;2.15;;
34505;SDS011;20748;42.632;23.198;2023-07-08T15:23:57;3.67;;;1.90;;
34505;SDS011;20748;42.632;23.198;2023-07-08T15:26:29;3.83;;;2.33;;
34505;SDS011;20748;42.632;23.198;2023-07-08T15:29:02;5.35;;;3.03;;
34505;SDS011;20748;42.632;23.198;2023-07-08T15:31:35;3.88;;;2.42;;
34505;SDS011;20748;42.632;23.198;2023-07-08T15:39:17;4.00;;;2.35;;
34505;SDS011;20748;42.632;23.198;2023-07-08T15:41:50;3.42;;;2.25;;
34505;SDS011;20748;42.632;23.198;2023-07-08T15:44:24;4.32;;;2.53;;
34505;SDS011;20748;42.632;23.198;2023-07-08T15:46:56;6.82;;;3.00;;
34505;SDS011;20748;42.632;23.198;2023-07-08T15:49:28;5.25;;;2.63;;
34505;SDS011;20748;42.632;23.198;2023-07-08T15:52:02;4.20;;;2.50;;
34505;SDS011;20748;42.632;23.198;2023-07-08T15:54:35;4.78;;;2.85;;
34505;SDS011;20748;42.632;23.198;2023-07-08T16:03:46;4.75;;;2.58;;
34505;SDS011;20748;42.632;23.198;2023-07-08T16:06:20;3.72;;;2.38;;
34505;SDS011;20748;42.632;23.198;2023-07-08T16:08:53;7.20;;;2.53;;
34505;SDS011;20748;42.632;23.198;2023-07-08T16:11:28;6.25;;;2.20;;
34505;SDS011;20748;42.632;23.198;2023-07-08T16:14:02;4.60;;;2.00;;
34505;SDS011;20748;42.632;23.198;2023-07-08T16:16:34;4.68;;;2.58;;
34505;SDS011;20748;42.632;23.198;2023-07-08T16:19:08;3.95;;;2.42;;
34505;SDS011;20748;42.632;23.198;2023-07-08T16:21:42;4.22;;;2.53;;
34505;SDS011;20748;42.632;23.198;2023-07-08T16:24:33;4.47;;;2.58;;
34505;SDS011;20748;42.632;23.198;2023-07-08T16:27:07;4.00;;;2.03;;
34505;SDS011;20748;42.632;23.198;2023-07-08T16:32:17;5.05;;;2.28;;
34505;SDS011;20748;42.632;23.198;2023-07-08T16:34:50;4.95;;;2.78;;
34505;SDS011;20748;42.632;23.198;2023-07-08T16:37:22;4.35;;;2.65;;
34505;SDS011;20748;42.632;23.198;2023-07-08T16:39:55;3.45;;;2.00;;
34505;SDS011;20748;42.632;23.198;2023-07-08T16:49:06;4.45;;;2.50;;
34505;SDS011;20748;42.632;23.198;2023-07-08T16:51:39;4.90;;;3.35;;
34505;SDS011;20748;42.632;23.198;2023-07-08T16:54:13;4.53;;;2.38;;
34505;SDS011;20748;42.632;23.198;2023-07-08T16:56:47;4.60;;;2.65;;
34505;SDS011;20748;42.632;23.198;2023-07-08T16:59:19;4.50;;;2.13;;
34505;SDS011;20748;42.632;23.198;2023-07-08T17:01:51;4.65;;;2.55;;
34505;SDS011;20748;42.632;23.198;2023-07-08T17:04:25;4.35;;;2.17;;
34505;SDS011;20748;42.632;23.198;2023-07-08T17:11:08;4.55;;;2.67;;
34505;SDS011;20748;42.632;23.198;2023-07-08T17:13:41;5.25;;;2.58;;
34505;SDS011;20748;42.632;23.198;2023-07-08T17:16:15;4.05;;;2.38;;
34505;SDS011;20748;42.632;23.198;2023-07-08T17:18:50;4.32;;;2.30;;
34505;SDS011;20748;42.632;23.198;2023-07-08T17:21:26;6.45;;;2.63;;
34505;SDS011;20748;42.632;23.198;2023-07-08T17:23:58;4.25;;;2.60;;
34505;SDS011;20748;42.632;23.198;2023-07-08T17:26:31;3.85;;;2.28;;
34505;SDS011;20748;42.632;23.198;2023-07-08T17:29:04;4.03;;;2.25;;
34505;SDS011;20748;42.632;23.198;2023-07-08T17:37:18;4.32;;;2.33;;
34505;SDS011;20748;42.632;23.198;2023-07-08T17:39:51;3.38;;;2.13;;
34505;SDS011;20748;42.632;23.198;2023-07-08T17:42:23;4.90;;;3.08;;
34505;SDS011;20748;42.632;23.198;2023-07-08T17:44:55;4.63;;;2.72;;
34505;SDS011;20748;42.632;23.198;2023-07-08T17:47:28;4.78;;;2.45;;
34505;SDS011;20748;42.632;23.198;2023-07-08T17:50:01;7.43;;;3.03;;
34505;SDS011;20748;42.632;23.198;2023-07-08T17:52:34;5.22;;;2.80;;
34505;SDS011;20748;42.632;23.198;2023-07-08T17:57:56;4.97;;;2.65;;
34505;SDS011;20748;42.632;23.198;2023-07-08T18:00:29;5.03;;;2.83;;
34505;SDS011;20748;42.632;23.198;2023-07-08T18:03:01;4.45;;;2.40;;
34505;SDS011;20748;42.632;23.198;2023-07-08T18:05:37;5.43;;;2.83;;
34505;SDS011;20748;42.632;23.198;2023-07-08T18:08:09;4.40;;;2.42;;
34505;SDS011;20748;42.632;23.198;2023-07-08T18:10:41;4.57;;;2.65;;
34505;SDS011;20748;42.632;23.198;2023-07-08T18:13:17;5.05;;;2.42;;
34505;SDS011;20748;42.632;23.198;2023-07-08T18:19:28;5.93;;;2.45;;
34505;SDS011;20748;42.632;23.198;2023-07-08T18:22:01;6.40;;;2.60;;
34505;SDS011;20748;42.632;23.198;2023-07-08T18:24:35;5.18;;;2.80;;
34505;SDS011;20748;42.632;23.198;2023-07-08T18:27:08;5.50;;;2.97;;
34505;SDS011;20748;42.632;23.198;2023-07-08T18:29:43;3.67;;;2.40;;
34505;SDS011;20748;42.632;23.198;2023-07-08T18:32:18;5.10;;;2.70;;
34505;SDS011;20748;42.632;23.198;2023-07-08T18:34:51;4.10;;;3.05;;
34505;SDS011;20748;42.632;23.198;2023-07-08T18:40:15;4.63;;;2.22;;
34505;SDS011;20748;42.632;23.198;2023-07-08T18:42:51;3.53;;;2.08;;
34505;SDS011;20748;42.632;23.198;2023-07-08T18:45:26;6.07;;;3.45;;
34505;SDS011;20748;42.632;23.198;2023-07-08T18:47:59;8.02;;;2.85;;
34505;SDS011;20748;42.632;23.198;2023-07-08T18:50:31;4.40;;;2.78;;
34505;SDS011;20748;42.632;23.198;2023-07-08T18:53:10;5.53;;;3.58;;
34505;SDS011;20748;42.632;23.198;2023-07-08T18:55:45;5.95;;;2.90;;
34505;SDS011;20748;42.632;23.198;2023-07-08T19:02:32;5.20;;;2.08;;
34505;SDS011;20748;42.632;23.198;2023-07-08T19:05:08;7.82;;;2.30;;
34505;SDS011;20748;42.632;23.198;2023-07-08T19:07:42;3.63;;;2.10;;
34505;SDS011;20748;42.632;23.198;2023-07-08T19:10:15;4.95;;;2.40;;
34505;SDS011;20748;42.632;23.198;2023-07-08T19:12:50;4.38;;;2.35;;
34505;SDS011;20748;42.632;23.198;2023-07-08T19:15:24;4.45;;;2.25;;
34505;SDS011;20748;42.632;23.198;2023-07-08T19:17:58;5.93;;;2.40;;
34505;SDS011;20748;42.632;23.198;2023-07-08T19:25:50;3.28;;;2.17;;
34505;SDS011;20748;42.632;23.198;2023-07-08T19:28:23;4.95;;;2.97;;
34505;SDS011;20748;42.632;23.198;2023-07-08T19:30:55;5.90;;;3.22;;
34505;SDS011;20748;42.632;23.198;2023-07-08T19:33:28;7.20;;;3.67;;
34505;SDS011;20748;42.632;23.198;2023-07-08T19:36:04;4.13;;;2.80;;
34505;SDS011;20748;42.632;23.198;2023-07-08T19:38:37;4.28;;;2.28;;
34505;SDS011;20748;42.632;23.198;2023-07-08T19:41:10;3.10;;;2.00;;
34505;SDS011;20748;42.632;23.198;2023-07-08T19:50:26;3.75;;;2.40;;